Time;durP1;ratioP1;P1;durP2;ratioP2;P2;SDS_P1;SDS_P2;PMS_P1;PMS_P2;Temp;Humidity;BMP_temperature;BMP_pressure;BME280_temperature;BME280_humidity;BME280_pressure;Samples;Min_cycle;Max_cycle;Signal;HPM_P1;HPM_P2
2022/03/17 00:02:05;;;;;;;22.88;19.20;;;;;;;;;;5048035;28;20360;-67
2022/03/17 00:04:30;;;;;;;23.45;18.92;;;;;;;;;;5040428;28;20657;-67
2022/03/17 00:06:56;;;;;;;24.42;19.30;;;;;;;;;;5045199;28;20013;-67
2022/03/17 00:09:21;;;;;;;26.23;20.00;;;;;;;;;;5047514;28;20036;-67
2022/03/17 00:11:47;;;;;;;22.80;19.15;;;;;;;;;;5043811;28;20287;-67
2022/03/17 00:14:14;;;;;;;24.52;18.63;;;;;;;;;;5035391;28;20376;-67
2022/03/17 00:16:40;;;;;;;23.63;19.42;;;;;;;;;;5042549;28;20028;-67
2022/03/17 00:19:07;;;;;;;25.70;20.23;;;;;;;;;;5043820;28;20021;-66
2022/03/17 00:21:34;;;;;;;26.05;19.60;;;;;;;;;;5042426;28;20444;-68
2022/03/17 00:23:59;;;;;;;29.65;20.02;;;;;;;;;;5041682;28;20013;-68
2022/03/17 00:26:24;;;;;;;26.73;21.40;;;;;;;;;;5040910;28;20030;-67
2022/03/17 00:28:49;;;;;;;25.52;21.60;;;;;;;;;;5039023;28;20017;-68
2022/03/17 00:31:16;;;;;;;27.80;21.27;;;;;;;;;;5040085;28;20170;-68
2022/03/17 00:33:42;;;;;;;29.30;22.65;;;;;;;;;;5040237;28;20029;-68
2022/03/17 00:36:07;;;;;;;28.38;21.75;;;;;;;;;;5041802;28;20392;-68
2022/03/17 00:38:32;;;;;;;30.17;22.45;;;;;;;;;;5042017;28;20527;-68
2022/03/17 00:40:57;;;;;;;27.63;22.63;;;;;;;;;;5040585;28;20044;-68
2022/03/17 00:43:24;;;;;;;31.38;23.63;;;;;;;;;;5032954;28;20032;-67
2022/03/17 00:45:49;;;;;;;28.63;23.92;;;;;;;;;;5041658;28;20103;-67
2022/03/17 00:48:15;;;;;;;31.63;24.75;;;;;;;;;;5039301;28;20459;-67
2022/03/17 00:50:41;;;;;;;30.80;24.88;;;;;;;;;;5044245;28;20346;-68
2022/03/17 00:53:06;;;;;;;35.95;26.10;;;;;;;;;;5045368;28;20518;-68
2022/03/17 00:55:32;;;;;;;35.05;26.88;;;;;;;;;;5041132;28;20041;-68
2022/03/17 00:57:58;;;;;;;35.70;28.35;;;;;;;;;;5036594;28;20036;-67
2022/03/17 01:00:23;;;;;;;42.65;31.15;;;;;;;;;;5020012;28;20161;-68
2022/03/17 01:02:50;;;;;;;45.05;32.53;;;;;;;;;;5041999;28;20032;-69
2022/03/17 01:05:17;;;;;;;49.25;34.08;;;;;;;;;;5040523;28;20517;-67
2022/03/17 01:07:42;;;;;;;47.25;35.47;;;;;;;;;;5042381;28;20016;-68
2022/03/17 01:10:09;;;;;;;48.50;35.30;;;;;;;;;;5041187;28;20547;-68
2022/03/17 01:12:34;;;;;;;48.58;35.33;;;;;;;;;;5036482;28;20455;-69
2022/03/17 01:15:00;;;;;;;45.33;34.95;;;;;;;;;;5036730;28;20052;-69
2022/03/17 01:17:26;;;;;;;49.22;36.72;;;;;;;;;;5038272;28;20020;-68
2022/03/17 01:19:51;;;;;;;51.58;37.75;;;;;;;;;;5043223;28;20523;-68
2022/03/17 01:22:17;;;;;;;55.08;38.25;;;;;;;;;;5041317;28;20044;-68
2022/03/17 01:24:43;;;;;;;49.40;36.97;;;;;;;;;;5038442;28;20040;-68
2022/03/17 01:27:08;;;;;;;54.00;37.85;;;;;;;;;;5043578;28;20072;-68
2022/03/17 01:29:34;;;;;;;48.75;37.35;;;;;;;;;;5030698;28;20028;-68
2022/03/17 01:31:59;;;;;;;51.22;37.92;;;;;;;;;;5043192;28;20025;-70
2022/03/17 01:34:24;;;;;;;51.35;37.42;;;;;;;;;;5040306;28;20352;-69
2022/03/17 01:36:50;;;;;;;48.65;36.25;;;;;;;;;;5044154;28;20036;-69
2022/03/17 01:39:16;;;;;;;47.67;34.67;;;;;;;;;;5025305;28;20028;-68
2022/03/17 01:41:42;;;;;;;38.63;27.95;;;;;;;;;;5024361;28;20125;-69
2022/03/17 01:44:26;;;;;;;35.83;26.65;;;;;;;;;;5036309;28;20040;-69
2022/03/17 01:49:36;;;;;;;30.17;21.45;;;;;;;;;;5039288;28;20052;-67
2022/03/17 01:52:01;;;;;;;28.83;19.35;;;;;;;;;;5042471;28;20029;-67
2022/03/17 01:54:26;;;;;;;25.52;15.15;;;;;;;;;;5038223;28;20041;-68
2022/03/17 01:56:52;;;;;;;20.88;13.32;;;;;;;;;;5040540;28;20488;-67
2022/03/17 01:59:21;;;;;;;20.17;11.85;;;;;;;;;;5032557;28;20041;-67
2022/03/17 02:01:47;;;;;;;21.67;9.75;;;;;;;;;;5040754;28;20059;-68
2022/03/17 02:04:13;;;;;;;22.60;10.02;;;;;;;;;;5041590;28;20033;-68
2022/03/17 02:06:38;;;;;;;20.95;9.73;;;;;;;;;;5037736;28;20113;-68
2022/03/17 02:09:04;;;;;;;18.70;9.77;;;;;;;;;;5041154;28;20475;-67
2022/03/17 02:14:14;;;;;;;24.67;8.93;;;;;;;;;;5034560;28;20095;-68
2022/03/17 02:16:39;;;;;;;20.27;9.18;;;;;;;;;;5042790;28;20247;-67
2022/03/17 02:19:06;;;;;;;22.13;8.80;;;;;;;;;;5045286;28;20021;-68
2022/03/17 02:21:35;;;;;;;17.63;8.65;;;;;;;;;;5038506;28;20090;-68
2022/03/17 02:26:45;;;;;;;20.10;8.63;;;;;;;;;;5041699;28;20083;-66
2022/03/17 02:29:12;;;;;;;21.25;9.50;;;;;;;;;;5033647;28;20025;-68
2022/03/17 02:31:38;;;;;;;26.10;9.68;;;;;;;;;;5040064;28;20118;-68
2022/03/17 02:34:03;;;;;;;26.95;11.27;;;;;;;;;;5042002;28;20432;-68
2022/03/17 02:36:29;;;;;;;22.38;10.05;;;;;;;;;;5040653;28;20029;-67
2022/03/17 02:38:54;;;;;;;31.02;11.35;;;;;;;;;;5027419;28;20128;-70
2022/03/17 02:41:23;;;;;;;23.52;10.50;;;;;;;;;;5046307;28;20044;-67
2022/03/17 02:43:55;;;;;;;22.20;11.25;;;;;;;;;;5037114;28;20325;-69
2022/03/17 02:46:23;;;;;;;28.35;11.95;;;;;;;;;;5041766;28;20024;-67
2022/03/17 02:48:48;;;;;;;25.60;11.82;;;;;;;;;;5042729;28;20025;-67
2022/03/17 02:51:14;;;;;;;29.92;12.82;;;;;;;;;;5044622;28;20036;-68
2022/03/17 02:53:41;;;;;;;29.33;12.63;;;;;;;;;;5043097;28;20224;-66
2022/03/17 02:56:06;;;;;;;27.83;12.80;;;;;;;;;;5044868;28;20025;-67
2022/03/17 02:58:31;;;;;;;30.88;13.20;;;;;;;;;;5039635;28;20032;-68
2022/03/17 03:00:57;;;;;;;26.88;11.82;;;;;;;;;;5042555;28;20032;-68
2022/03/17 03:03:23;;;;;;;28.85;10.90;;;;;;;;;;5043209;28;20021;-68
2022/03/17 03:05:48;;;;;;;24.25;10.88;;;;;;;;;;5024805;28;20906;-68
2022/03/17 03:08:14;;;;;;;20.00;10.48;;;;;;;;;;5043388;28;20111;-67
2022/03/17 03:10:39;;;;;;;21.35;9.45;;;;;;;;;;5043842;28;20017;-68
2022/03/17 03:13:06;;;;;;;24.17;10.65;;;;;;;;;;5040351;28;20503;-67
2022/03/17 03:15:31;;;;;;;26.73;9.95;;;;;;;;;;5041896;28;20025;-68
2022/03/17 03:17:56;;;;;;;28.95;7.38;;;;;;;;;;5044782;28;20025;-67
2022/03/17 03:20:22;;;;;;;25.90;6.10;;;;;;;;;;5044397;28;20400;-67
2022/03/17 03:22:47;;;;;;;28.35;6.22;;;;;;;;;;5044346;28;20043;-67
2022/03/17 03:25:12;;;;;;;24.27;4.70;;;;;;;;;;5043923;28;20024;-68
2022/03/17 03:27:40;;;;;;;21.48;3.75;;;;;;;;;;5042593;28;20026;-69
2022/03/17 03:30:05;;;;;;;22.90;4.22;;;;;;;;;;5038017;28;20101;-68
2022/03/17 03:32:31;;;;;;;25.40;4.88;;;;;;;;;;5042545;28;20044;-68
2022/03/17 03:34:56;;;;;;;16.40;3.90;;;;;;;;;;5044752;28;20076;-67
2022/03/17 03:37:25;;;;;;;17.38;3.78;;;;;;;;;;5041879;28;20025;-67
2022/03/17 03:39:51;;;;;;;18.75;3.50;;;;;;;;;;5040457;28;20036;-68
2022/03/17 03:42:17;;;;;;;17.77;3.72;;;;;;;;;;5044728;28;20495;-67
2022/03/17 03:44:42;;;;;;;19.45;3.97;;;;;;;;;;5035385;28;20028;-67
2022/03/17 03:47:08;;;;;;;20.90;3.50;;;;;;;;;;5047377;28;20074;-68
2022/03/17 03:49:33;;;;;;;22.25;4.05;;;;;;;;;;5042047;28;20063;-67
2022/03/17 03:51:58;;;;;;;24.33;4.10;;;;;;;;;;5044110;28;20386;-67
2022/03/17 03:54:23;;;;;;;22.80;3.67;;;;;;;;;;5042276;28;20065;-68
2022/03/17 03:56:53;;;;;;;21.95;3.80;;;;;;;;;;5043804;28;20637;-66
2022/03/17 03:59:20;;;;;;;15.30;3.38;;;;;;;;;;5040278;28;20055;-67
2022/03/17 04:01:46;;;;;;;17.95;3.53;;;;;;;;;;5043174;28;20487;-68
2022/03/17 04:04:20;;;;;;;21.55;3.10;;;;;;;;;;5046176;28;20055;-68
2022/03/17 04:06:47;;;;;;;16.27;3.63;;;;;;;;;;5049314;28;20048;-68
2022/03/17 04:09:13;;;;;;;21.58;3.40;;;;;;;;;;5041897;28;20434;-67
2022/03/17 04:11:38;;;;;;;17.20;3.17;;;;;;;;;;5040955;28;20021;-67
2022/03/17 04:14:05;;;;;;;16.38;3.25;;;;;;;;;;5041595;28;20382;-68
2022/03/17 04:16:31;;;;;;;16.63;2.65;;;;;;;;;;5039990;28;20029;-68
2022/03/17 04:18:57;;;;;;;10.90;2.20;;;;;;;;;;5025715;28;20322;-67
2022/03/17 04:21:22;;;;;;;19.58;2.55;;;;;;;;;;5042834;28;20049;-68
2022/03/17 04:23:47;;;;;;;13.00;2.42;;;;;;;;;;5038494;28;20384;-68
2022/03/17 04:26:13;;;;;;;12.75;2.75;;;;;;;;;;5044032;28;20379;-66
2022/03/17 04:28:38;;;;;;;12.50;2.95;;;;;;;;;;5039022;28;20029;-66
2022/03/17 04:31:03;;;;;;;15.40;2.53;;;;;;;;;;5041543;28;20033;-66
2022/03/17 04:33:29;;;;;;;11.30;2.50;;;;;;;;;;5042208;28;20082;-68
2022/03/17 04:35:55;;;;;;;12.27;2.50;;;;;;;;;;5023901;28;20021;-67
2022/03/17 04:38:22;;;;;;;16.77;2.75;;;;;;;;;;5042828;28;20032;-66
2022/03/17 04:40:49;;;;;;;15.02;2.72;;;;;;;;;;5041876;28;20048;-68
2022/03/17 04:43:17;;;;;;;17.63;2.50;;;;;;;;;;5040529;28;20543;-67
2022/03/17 04:45:42;;;;;;;14.15;2.72;;;;;;;;;;5037242;28;20017;-67
2022/03/17 04:48:08;;;;;;;15.73;2.40;;;;;;;;;;5043728;28;20023;-67
2022/03/17 04:50:34;;;;;;;15.75;3.28;;;;;;;;;;5041547;28;20483;-67
2022/03/17 04:55:43;;;;;;;14.98;2.90;;;;;;;;;;5042231;28;20133;-68
2022/03/17 04:58:08;;;;;;;21.13;3.58;;;;;;;;;;5041292;28;20057;-67
2022/03/17 05:00:34;;;;;;;20.98;2.70;;;;;;;;;;5059393;28;20039;-68
2022/03/17 05:02:59;;;;;;;17.45;3.55;;;;;;;;;;5024890;28;20068;-68
2022/03/17 05:05:24;;;;;;;14.32;3.38;;;;;;;;;;5043049;28;20538;-67
2022/03/17 05:07:50;;;;;;;18.15;2.60;;;;;;;;;;5041919;28;20616;-68
2022/03/17 05:10:15;;;;;;;22.95;3.47;;;;;;;;;;5042432;28;20032;-68
2022/03/17 05:12:40;;;;;;;20.40;3.78;;;;;;;;;;5040759;28;20112;-67
2022/03/17 05:15:06;;;;;;;20.48;2.58;;;;;;;;;;5037988;28;20592;-68
2022/03/17 05:17:33;;;;;;;16.48;3.10;;;;;;;;;;5042622;28;20108;-67
2022/03/17 05:19:59;;;;;;;17.98;2.60;;;;;;;;;;5039726;28;20490;-67
2022/03/17 05:22:26;;;;;;;18.73;3.30;;;;;;;;;;5042908;28;20024;-68
2022/03/17 05:24:51;;;;;;;20.63;3.60;;;;;;;;;;5039604;28;20143;-67
2022/03/17 05:27:16;;;;;;;20.85;3.50;;;;;;;;;;5041406;28;20486;-67
2022/03/17 05:29:43;;;;;;;23.42;3.67;;;;;;;;;;5034614;28;20029;-66
2022/03/17 05:32:08;;;;;;;20.63;3.75;;;;;;;;;;5040914;28;20037;-70
2022/03/17 05:34:34;;;;;;;22.95;3.38;;;;;;;;;;5041580;28;20063;-67
2022/03/17 05:37:00;;;;;;;18.17;3.58;;;;;;;;;;5023179;28;20194;-68
2022/03/17 05:39:25;;;;;;;21.75;3.15;;;;;;;;;;5041768;28;20108;-68
2022/03/17 05:41:50;;;;;;;19.75;4.65;;;;;;;;;;5038498;28;20025;-69
2022/03/17 05:44:16;;;;;;;25.48;3.58;;;;;;;;;;5035316;28;20056;-68
2022/03/17 05:46:41;;;;;;;17.85;3.15;;;;;;;;;;5041499;28;20457;-67
2022/03/17 05:49:06;;;;;;;18.65;3.42;;;;;;;;;;5041734;28;20024;-66
2022/03/17 05:51:32;;;;;;;23.55;3.45;;;;;;;;;;5041234;28;20520;-68
2022/03/17 05:53:57;;;;;;;21.35;3.50;;;;;;;;;;5037817;28;20457;-67
2022/03/17 05:56:22;;;;;;;24.10;3.38;;;;;;;;;;5041424;28;20067;-66
2022/03/17 05:58:47;;;;;;;17.95;2.85;;;;;;;;;;5035960;28;20027;-67
2022/03/17 06:01:13;;;;;;;17.52;2.80;;;;;;;;;;5038984;28;20067;-69
2022/03/17 06:03:38;;;;;;;17.00;2.55;;;;;;;;;;5038900;28;20037;-69
2022/03/17 06:06:04;;;;;;;15.25;2.50;;;;;;;;;;5023283;28;20072;-68
2022/03/17 06:08:29;;;;;;;16.10;2.72;;;;;;;;;;5039968;28;20127;-68
2022/03/17 06:10:54;;;;;;;14.85;2.97;;;;;;;;;;5040897;28;20178;-69
2022/03/17 06:13:20;;;;;;;15.85;3.03;;;;;;;;;;5040597;28;20420;-69
2022/03/17 06:15:45;;;;;;;19.55;2.53;;;;;;;;;;5041453;28;20021;-67
2022/03/17 06:18:11;;;;;;;19.95;3.05;;;;;;;;;;5045138;28;20029;-68
2022/03/17 06:20:38;;;;;;;24.00;4.35;;;;;;;;;;5045034;28;20041;-68
2022/03/17 06:23:04;;;;;;;17.38;3.90;;;;;;;;;;5045481;28;20017;-68
2022/03/17 06:25:30;;;;;;;17.45;3.83;;;;;;;;;;5045248;28;20023;-68
2022/03/17 06:28:00;;;;;;;22.58;4.28;;;;;;;;;;5039569;28;20021;-67
2022/03/17 06:30:26;;;;;;;15.02;2.90;;;;;;;;;;5042143;28;20021;-68
2022/03/17 06:32:54;;;;;;;11.52;2.47;;;;;;;;;;5043466;28;20044;-68
2022/03/17 06:35:21;;;;;;;16.25;2.80;;;;;;;;;;5044221;28;20029;-67
2022/03/17 06:37:47;;;;;;;10.48;2.47;;;;;;;;;;5044553;28;20033;-67
2022/03/17 06:40:13;;;;;;;14.90;2.92;;;;;;;;;;5043748;28;20517;-68
2022/03/17 06:42:39;;;;;;;13.48;2.58;;;;;;;;;;5043593;28;20025;-67
2022/03/17 06:45:05;;;;;;;14.52;3.05;;;;;;;;;;5020788;28;20025;-67
2022/03/17 06:47:30;;;;;;;16.17;2.60;;;;;;;;;;5045769;28;20032;-68
2022/03/17 06:49:56;;;;;;;16.35;2.53;;;;;;;;;;5043508;28;20020;-66
2022/03/17 06:52:22;;;;;;;16.00;3.10;;;;;;;;;;5045061;28;20032;-68
2022/03/17 06:54:47;;;;;;;17.95;3.45;;;;;;;;;;5042107;28;20045;-66
2022/03/17 06:57:17;;;;;;;19.17;3.03;;;;;;;;;;5048417;28;20104;-67
2022/03/17 06:59:42;;;;;;;15.75;2.67;;;;;;;;;;5051312;28;20036;-66
2022/03/17 07:02:07;;;;;;;19.27;2.70;;;;;;;;;;5045435;28;20091;-67
2022/03/17 07:04:32;;;;;;;11.32;2.45;;;;;;;;;;5042283;28;20047;-68
2022/03/17 07:06:58;;;;;;;12.57;2.65;;;;;;;;;;5043867;28;20442;-68
2022/03/17 07:09:23;;;;;;;9.48;1.95;;;;;;;;;;5044673;28;20024;-69
2022/03/17 07:11:48;;;;;;;19.88;2.55;;;;;;;;;;5043722;28;20376;-67
2022/03/17 07:14:14;;;;;;;15.57;2.42;;;;;;;;;;5038811;28;20060;-67
2022/03/17 07:16:40;;;;;;;12.35;2.53;;;;;;;;;;5044967;28;20033;-67
2022/03/17 07:19:07;;;;;;;19.48;2.80;;;;;;;;;;5042856;28;20025;-66
2022/03/17 07:21:32;;;;;;;13.43;2.33;;;;;;;;;;5043738;28;20515;-67
2022/03/17 07:23:57;;;;;;;18.38;4.78;;;;;;;;;;5041263;28;20060;-67
2022/03/17 07:26:22;;;;;;;12.25;2.35;;;;;;;;;;5045479;28;20039;-66
2022/03/17 07:28:48;;;;;;;12.88;2.25;;;;;;;;;;5045798;28;20137;-68
2022/03/17 07:31:13;;;;;;;14.32;2.50;;;;;;;;;;5063976;28;20021;-68
2022/03/17 07:33:38;;;;;;;12.40;2.33;;;;;;;;;;5056417;28;20434;-67
2022/03/17 07:36:04;;;;;;;11.43;2.13;;;;;;;;;;5042105;28;20561;-67
2022/03/17 07:38:30;;;;;;;9.70;2.30;;;;;;;;;;5043341;28;20033;-67
2022/03/17 07:40:55;;;;;;;12.77;2.25;;;;;;;;;;5042383;28;20108;-67
2022/03/17 07:43:22;;;;;;;18.52;2.38;;;;;;;;;;5040150;28;20029;-68
2022/03/17 07:45:48;;;;;;;13.57;2.63;;;;;;;;;;5041021;28;20397;-67
2022/03/17 07:48:13;;;;;;;12.90;2.28;;;;;;;;;;5042992;28;20028;-68
2022/03/17 07:50:39;;;;;;;13.27;2.40;;;;;;;;;;5045387;28;20063;-67
2022/03/17 07:53:05;;;;;;;9.07;2.33;;;;;;;;;;5042426;28;20114;-67
2022/03/17 07:55:30;;;;;;;10.68;2.47;;;;;;;;;;5043043;28;20385;-67
2022/03/17 07:58:15;;;;;;;8.30;2.25;;;;;;;;;;5039425;28;20115;-66
2022/03/17 08:00:42;;;;;;;9.55;2.65;;;;;;;;;;5049105;28;20024;-67
2022/03/17 08:03:07;;;;;;;7.15;2.20;;;;;;;;;;5041453;28;20021;-67
2022/03/17 08:05:32;;;;;;;12.88;2.30;;;;;;;;;;5044138;28;20588;-68
2022/03/17 08:08:00;;;;;;;8.18;1.65;;;;;;;;;;5039125;28;20468;-67
2022/03/17 08:10:28;;;;;;;8.07;1.90;;;;;;;;;;5043176;28;20502;-67
2022/03/17 08:12:53;;;;;;;8.60;2.25;;;;;;;;;;5047107;28;20024;-68
2022/03/17 08:15:18;;;;;;;14.82;2.78;;;;;;;;;;5042519;28;20029;-67
2022/03/17 08:17:43;;;;;;;13.85;2.45;;;;;;;;;;5042797;28;20434;-68
2022/03/17 08:20:09;;;;;;;10.15;2.33;;;;;;;;;;5021972;28;20106;-68
2022/03/17 08:22:34;;;;;;;10.55;2.20;;;;;;;;;;5040778;28;20025;-68
2022/03/17 08:24:59;;;;;;;18.17;2.72;;;;;;;;;;5039143;28;20067;-67
2022/03/17 08:27:36;;;;;;;7.03;1.70;;;;;;;;;;5043252;28;20075;-66
2022/03/17 08:30:02;;;;;;;8.40;2.80;;;;;;;;;;5034633;28;20036;-68
2022/03/17 08:32:27;;;;;;;14.50;2.50;;;;;;;;;;5042421;28;20025;-68
2022/03/17 08:34:53;;;;;;;9.35;2.40;;;;;;;;;;5038618;28;20653;-67
2022/03/17 08:37:18;;;;;;;11.60;2.47;;;;;;;;;;5041067;28;20108;-67
2022/03/17 08:39:44;;;;;;;8.65;2.28;;;;;;;;;;5040578;28;20037;-69
2022/03/17 08:42:09;;;;;;;11.25;2.60;;;;;;;;;;5021951;28;20458;-68
2022/03/17 08:44:34;;;;;;;9.63;2.75;;;;;;;;;;5048231;28;20051;-68
2022/03/17 08:49:43;;;;;;;15.07;2.78;;;;;;;;;;5062381;28;20158;-68
2022/03/17 08:52:09;;;;;;;11.90;2.63;;;;;;;;;;5059119;28;20142;-69
2022/03/17 08:54:35;;;;;;;9.82;3.30;;;;;;;;;;5062311;28;20059;-69
2022/03/17 08:57:00;;;;;;;14.20;3.05;;;;;;;;;;5060262;28;20032;-68
2022/03/17 08:59:30;;;;;;;11.52;3.55;;;;;;;;;;5055363;28;20032;-67
2022/03/17 09:01:59;;;;;;;11.43;2.85;;;;;;;;;;5061577;28;20059;-68
2022/03/17 09:04:25;;;;;;;13.70;3.05;;;;;;;;;;5061050;28;20119;-69
2022/03/17 09:06:59;;;;;;;17.35;3.80;;;;;;;;;;5062988;28;20103;-68
2022/03/17 09:09:25;;;;;;;10.32;3.33;;;;;;;;;;5061746;28;20023;-69
2022/03/17 09:11:51;;;;;;;8.43;3.03;;;;;;;;;;5061695;28;20036;-69
2022/03/17 09:14:16;;;;;;;15.10;3.53;;;;;;;;;;5054062;28;20188;-68
2022/03/17 09:16:42;;;;;;;9.75;2.92;;;;;;;;;;5061654;28;20474;-68
2022/03/17 09:19:08;;;;;;;9.55;2.80;;;;;;;;;;5060516;28;20451;-68
2022/03/17 09:21:35;;;;;;;15.02;3.50;;;;;;;;;;5045450;28;20052;-69
2022/03/17 09:24:00;;;;;;;9.38;3.00;;;;;;;;;;5044918;28;20025;-70
2022/03/17 09:26:26;;;;;;;12.80;3.08;;;;;;;;;;5043138;28;20352;-68
2022/03/17 09:28:52;;;;;;;13.05;3.47;;;;;;;;;;5044266;28;20027;-68
2022/03/17 09:31:18;;;;;;;13.73;4.40;;;;;;;;;;5057478;28;20035;-69
2022/03/17 09:33:45;;;;;;;13.27;3.65;;;;;;;;;;5061823;28;20025;-68
2022/03/17 09:36:10;;;;;;;10.68;3.67;;;;;;;;;;5061332;28;20173;-68
2022/03/17 09:38:35;;;;;;;9.93;3.97;;;;;;;;;;5060903;28;20078;-68
2022/03/17 09:41:00;;;;;;;10.93;3.50;;;;;;;;;;5059871;28;20036;-69
2022/03/17 09:43:29;;;;;;;12.18;4.43;;;;;;;;;;5058319;28;20028;-67
2022/03/17 09:45:56;;;;;;;15.43;3.97;;;;;;;;;;5061143;28;20842;-68
2022/03/17 09:48:23;;;;;;;12.32;4.05;;;;;;;;;;5062136;28;20023;-71
2022/03/17 09:50:55;;;;;;;10.00;4.35;;;;;;;;;;5066100;28;20017;-69
2022/03/17 09:53:20;;;;;;;12.60;4.40;;;;;;;;;;5063776;28;20090;-67
2022/03/17 09:55:45;;;;;;;16.35;4.45;;;;;;;;;;5065363;28;20123;-69
2022/03/17 09:58:11;;;;;;;10.20;4.55;;;;;;;;;;5061393;28;20024;-67
2022/03/17 10:00:48;;;;;;;11.07;4.30;;;;;;;;;;5064328;28;20035;-67
2022/03/17 10:03:14;;;;;;;12.68;5.00;;;;;;;;;;5063158;28;20024;-68
2022/03/17 10:05:41;;;;;;;12.45;4.72;;;;;;;;;;5064159;28;20032;-69
2022/03/17 10:08:07;;;;;;;11.68;4.10;;;;;;;;;;5060637;28;20020;-68
2022/03/17 10:10:38;;;;;;;11.55;4.20;;;;;;;;;;5065156;28;20028;-68
2022/03/17 10:13:05;;;;;;;10.30;3.67;;;;;;;;;;5060333;28;20031;-67
2022/03/17 10:15:30;;;;;;;11.38;3.85;;;;;;;;;;5061686;28;20027;-68
2022/03/17 10:17:56;;;;;;;10.02;4.30;;;;;;;;;;5062407;28;20390;-68
2022/03/17 10:20:25;;;;;;;7.22;3.70;;;;;;;;;;5050639;28;20169;-69
2022/03/17 10:23:01;;;;;;;12.85;4.18;;;;;;;;;;5063533;28;20021;-69
2022/03/17 10:25:30;;;;;;;9.48;4.28;;;;;;;;;;5062845;28;20024;-69
2022/03/17 10:27:57;;;;;;;11.65;3.90;;;;;;;;;;5060603;28;20077;-68
2022/03/17 10:30:45;;;;;;;13.90;4.13;;;;;;;;;;5059477;28;20055;-68
2022/03/17 10:33:15;;;;;;;10.88;3.72;;;;;;;;;;5062774;28;20194;-67
2022/03/17 10:35:45;;;;;;;12.88;3.30;;;;;;;;;;5064371;28;20402;-67
2022/03/17 10:38:11;;;;;;;9.93;3.28;;;;;;;;;;5060363;28;21671;-68
2022/03/17 10:40:37;;;;;;;13.68;3.58;;;;;;;;;;5064037;28;20021;-67
2022/03/17 10:43:15;;;;;;;12.68;3.28;;;;;;;;;;5060668;28;20035;-68
2022/03/17 10:45:40;;;;;;;13.07;3.28;;;;;;;;;;5060663;28;20521;-66
2022/03/17 10:48:06;;;;;;;9.02;3.38;;;;;;;;;;5060712;28;20017;-67
2022/03/17 10:50:36;;;;;;;10.07;3.03;;;;;;;;;;5064206;28;20029;-66
2022/03/17 10:53:02;;;;;;;9.60;3.35;;;;;;;;;;5058775;28;20029;-68
2022/03/17 10:55:29;;;;;;;11.68;3.00;;;;;;;;;;5055854;28;20037;-69
2022/03/17 10:57:59;;;;;;;13.07;3.53;;;;;;;;;;5060388;28;20133;-66
2022/03/17 11:00:26;;;;;;;11.77;2.83;;;;;;;;;;5060339;28;20024;-66
2022/03/17 11:02:53;;;;;;;8.27;2.60;;;;;;;;;;5064267;28;20074;-66
2022/03/17 11:05:19;;;;;;;11.85;3.08;;;;;;;;;;5060710;28;20198;-66
2022/03/17 11:07:48;;;;;;;7.50;2.50;;;;;;;;;;5064184;28;20029;-67
2022/03/17 11:10:19;;;;;;;14.73;2.80;;;;;;;;;;5062194;28;20090;-67
2022/03/17 11:12:44;;;;;;;9.52;2.63;;;;;;;;;;5060789;28;20549;-68
2022/03/17 11:15:10;;;;;;;10.98;3.30;;;;;;;;;;5059012;28;20214;-69
2022/03/17 11:17:35;;;;;;;12.80;2.75;;;;;;;;;;5064601;28;20111;-68
2022/03/17 11:20:05;;;;;;;10.25;3.15;;;;;;;;;;5061369;28;20115;-67
2022/03/17 11:22:32;;;;;;;7.47;2.55;;;;;;;;;;5064215;28;20495;-68
2022/03/17 11:25:23;;;;;;;10.18;2.95;;;;;;;;;;5061948;28;20048;-66
2022/03/17 11:27:50;;;;;;;11.52;2.80;;;;;;;;;;5060523;28;20179;-67
2022/03/17 11:30:16;;;;;;;11.02;2.83;;;;;;;;;;5040847;28;20043;-68
2022/03/17 11:32:49;;;;;;;10.63;3.03;;;;;;;;;;5044075;28;20480;-68
2022/03/17 11:35:18;;;;;;;11.65;2.85;;;;;;;;;;5041886;28;20035;-68
2022/03/17 11:37:44;;;;;;;10.40;3.10;;;;;;;;;;5044591;28;20287;-68
2022/03/17 11:40:09;;;;;;;14.02;2.75;;;;;;;;;;5041581;28;20021;-66
2022/03/17 11:42:42;;;;;;;9.57;2.53;;;;;;;;;;5042026;28;20116;-68
2022/03/17 11:45:09;;;;;;;14.35;2.53;;;;;;;;;;5038176;28;20048;-67
2022/03/17 11:47:36;;;;;;;12.15;2.70;;;;;;;;;;5042857;28;20048;-67
2022/03/17 11:50:22;;;;;;;12.32;2.80;;;;;;;;;;5043247;28;20491;-66
2022/03/17 11:53:05;;;;;;;10.93;3.05;;;;;;;;;;5036892;28;20029;-66
2022/03/17 11:55:30;;;;;;;;;;;;;;;;;;5041598;28;20198;-67
2022/03/17 11:58:25;;;;;;;15.73;2.40;;;;;;;;;;5041195;28;20006;-66
2022/03/17 12:00:52;;;;;;;12.95;2.83;;;;;;;;;;5036527;28;20281;-67
2022/03/17 12:03:26;;;;;;;11.85;2.72;;;;;;;;;;5040998;28;20388;-67
2022/03/17 12:06:24;;;;;;;10.75;2.50;;;;;;;;;;5041608;28;20104;-67
2022/03/17 12:08:51;;;;;;;11.60;2.58;;;;;;;;;;5031223;28;20064;-68
2022/03/17 12:11:17;;;;;;;8.27;1.90;;;;;;;;;;5023058;28;20031;-67
2022/03/17 12:14:03;;;;;;;8.60;1.88;;;;;;;;;;5037513;28;20183;-66
2022/03/17 12:16:38;;;;;;;11.27;2.53;;;;;;;;;;5040302;28;20087;-66
2022/03/17 12:19:04;;;;;;;8.13;2.00;;;;;;;;;;5040014;28;20112;-68
2022/03/17 12:21:48;;;;;;;11.68;2.13;;;;;;;;;;5022985;28;20448;-67
2022/03/17 12:24:32;;;;;;;10.95;2.38;;;;;;;;;;5039149;28;20036;-66
2022/03/17 12:27:05;;;;;;;7.35;2.13;;;;;;;;;;5041932;28;20028;-68
2022/03/17 12:29:31;;;;;;;11.45;2.03;;;;;;;;;;5015064;28;20149;-67
2022/03/17 12:32:02;;;;;;;14.18;2.50;;;;;;;;;;5042753;28;20040;-66
2022/03/17 12:34:27;;;;;;;9.35;2.03;;;;;;;;;;5041028;28;20387;-67
2022/03/17 12:36:53;;;;;;;10.57;1.95;;;;;;;;;;5042478;28;20479;-67
2022/03/17 12:39:25;;;;;;;4.28;1.45;;;;;;;;;;5040733;28;20032;-68
2022/03/17 12:41:51;;;;;;;5.28;1.88;;;;;;;;;;5043224;28;20024;-68
2022/03/17 12:44:26;;;;;;;9.60;2.15;;;;;;;;;;5035300;28;20131;-67
2022/03/17 12:46:51;;;;;;;9.02;2.00;;;;;;;;;;5041311;28;20017;-67
2022/03/17 12:49:20;;;;;;;12.13;2.03;;;;;;;;;;5040989;28;20017;-68
2022/03/17 12:51:46;;;;;;;10.02;2.00;;;;;;;;;;5026481;28;20025;-68
2022/03/17 12:54:13;;;;;;;8.52;2.05;;;;;;;;;;5023881;28;20093;-69
2022/03/17 12:56:51;;;;;;;11.10;2.15;;;;;;;;;;5044173;28;20067;-68
2022/03/17 12:59:17;;;;;;;9.85;2.10;;;;;;;;;;5035943;28;20025;-67
2022/03/17 13:01:42;;;;;;;12.95;1.98;;;;;;;;;;5046898;28;20021;-66
2022/03/17 13:04:07;;;;;;;8.07;2.00;;;;;;;;;;5049480;28;20032;-67
2022/03/17 13:06:54;;;;;;;8.73;2.10;;;;;;;;;;5048095;28;20084;-68
2022/03/17 13:09:20;;;;;;;10.00;1.83;;;;;;;;;;5039484;28;20021;-66
2022/03/17 13:14:41;;;;;;;13.55;2.20;;;;;;;;;;5037359;28;20046;-66
2022/03/17 13:17:07;;;;;;;12.57;2.40;;;;;;;;;;5040862;28;20021;-67
2022/03/17 13:19:51;;;;;;;8.05;2.28;;;;;;;;;;5041605;28;20303;-67
2022/03/17 13:22:32;;;;;;;8.85;1.85;;;;;;;;;;5059329;28;20399;-67
2022/03/17 13:25:02;;;;;;;10.98;2.35;;;;;;;;;;5059767;28;20435;-67
2022/03/17 13:27:28;;;;;;;11.98;2.10;;;;;;;;;;5058482;28;20022;-68
2022/03/17 13:29:54;;;;;;;10.05;2.30;;;;;;;;;;5039122;28;20162;-67
2022/03/17 13:32:21;;;;;;;12.77;2.50;;;;;;;;;;5059876;28;20111;-68
2022/03/17 13:34:56;;;;;;;10.15;2.10;;;;;;;;;;5059711;28;20055;-68
2022/03/17 13:37:31;;;;;;;8.98;2.67;;;;;;;;;;5060827;28;20074;-67
2022/03/17 13:40:00;;;;;;;10.90;2.00;;;;;;;;;;5061141;28;20082;-67
2022/03/17 13:42:26;;;;;;;9.18;2.35;;;;;;;;;;5059548;28;20016;-67
2022/03/17 13:44:55;;;;;;;8.15;2.00;;;;;;;;;;5018659;28;20365;-68
2022/03/17 13:47:23;;;;;;;10.88;2.55;;;;;;;;;;5037971;28;20033;-67
2022/03/17 13:50:07;;;;;;;8.18;1.98;;;;;;;;;;5040264;28;20086;-67
2022/03/17 13:52:33;;;;;;;10.10;2.55;;;;;;;;;;5040161;28;20737;-68
2022/03/17 13:54:58;;;;;;;9.38;2.22;;;;;;;;;;5047142;28;20067;-68
2022/03/17 13:57:23;;;;;;;11.40;2.50;;;;;;;;;;5044228;28;20025;-68
2022/03/17 13:59:48;;;;;;;8.60;2.65;;;;;;;;;;5034493;28;20108;-67
2022/03/17 14:02:17;;;;;;;7.85;2.15;;;;;;;;;;5041003;28;20025;-66
2022/03/17 14:04:52;;;;;;;12.65;2.15;;;;;;;;;;5021829;28;20475;-67
2022/03/17 14:07:18;;;;;;;11.55;2.38;;;;;;;;;;5037379;28;20013;-67
2022/03/17 14:09:44;;;;;;;9.48;2.40;;;;;;;;;;5021459;28;20055;-66
2022/03/17 14:12:09;;;;;;;8.80;2.28;;;;;;;;;;5040776;28;20058;-67
2022/03/17 14:14:36;;;;;;;12.57;2.10;;;;;;;;;;5033263;28;20068;-66
2022/03/17 14:17:01;;;;;;;8.02;2.45;;;;;;;;;;5044527;28;20032;-68
2022/03/17 14:19:26;;;;;;;9.60;2.40;;;;;;;;;;5040235;28;20214;-66
2022/03/17 14:24:36;;;;;;;9.23;2.50;;;;;;;;;;5040664;28;20101;-68
2022/03/17 14:27:02;;;;;;;9.23;2.40;;;;;;;;;;5042808;28;20104;-68
2022/03/17 14:29:27;;;;;;;11.93;2.60;;;;;;;;;;5032728;28;20086;-67
2022/03/17 14:31:52;;;;;;;13.00;2.35;;;;;;;;;;5041649;28;20016;-68
2022/03/17 14:34:22;;;;;;;13.10;2.47;;;;;;;;;;5041484;28;20419;-67
2022/03/17 14:36:47;;;;;;;12.15;2.72;;;;;;;;;;5043908;28;20029;-67
2022/03/17 14:39:13;;;;;;;8.77;2.38;;;;;;;;;;5042925;28;20024;-67
2022/03/17 14:41:39;;;;;;;9.73;2.50;;;;;;;;;;5043173;28;20500;-67
2022/03/17 14:44:04;;;;;;;9.73;2.47;;;;;;;;;;5036166;28;20025;-67
2022/03/17 14:46:30;;;;;;;10.43;2.40;;;;;;;;;;5040722;28;20494;-67
2022/03/17 14:49:06;;;;;;;10.43;2.40;;;;;;;;;;5043422;28;20383;-66
2022/03/17 14:51:33;;;;;;;12.73;2.85;;;;;;;;;;5041605;28;20490;-67